Time;durP1;ratioP1;P1;durP2;ratioP2;P2;SDS_P1;SDS_P2;PMS_P1;PMS_P2;Temp;Humidity;BMP_temperature;BMP_pressure;BME280_temperature;BME280_humidity;BME280_pressure;Samples;Min_cycle;Max_cycle;Signal;HPM_P1;HPM_P2
2022/12/10 00:01:32;;;;;;;14.70;7.87;;;;;;;5.36;96.27;94281.49;1687192;85;21070;-68
2022/12/10 00:03:59;;;;;;;60.10;27.67;;;;;;;5.33;96.36;94288.09;1687216;85;21062;-68
2022/12/10 00:06:30;;;;;;;64.70;28.20;;;;;;;5.33;97.00;94286.79;1687170;85;21059;-68
2022/12/10 00:08:56;;;;;;;35.73;16.67;;;;;;;5.33;97.69;94272.86;1687203;85;21058;-68
2022/12/10 00:11:24;;;;;;;10.63;4.70;;;;;;;5.36;97.45;94290.64;1686981;85;21067;-68
2022/12/10 00:13:52;;;;;;;8.90;4.93;;;;;;;5.41;97.25;94290.11;1687096;85;21118;-68
2022/12/10 00:16:21;;;;;;;16.60;8.10;;;;;;;5.46;97.20;94290.48;1687269;85;21090;-68
2022/12/10 00:18:49;;;;;;;23.33;11.13;;;;;;;5.46;97.06;94268.23;1686947;85;21066;-68
2022/12/10 00:21:25;;;;;;;25.53;11.87;;;;;;;5.47;96.72;94272.56;1687153;85;21031;-68
2022/12/10 00:23:52;;;;;;;24.03;11.97;;;;;;;5.46;96.90;94266.48;1687191;85;21055;-68
2022/12/10 00:26:23;;;;;;;25.00;11.33;;;;;;;5.50;97.25;94257.69;1687100;85;21026;-68
2022/12/10 00:28:51;;;;;;;10.33;6.07;;;;;;;5.50;97.02;94271.22;1687152;85;21497;-68
2022/12/10 00:31:23;;;;;;;6.77;4.00;;;;;;;5.49;96.90;94259.87;1687324;85;21030;-68
2022/12/10 00:33:54;;;;;;;13.53;6.47;;;;;;;5.49;96.71;94254.64;1687103;85;21644;-68
2022/12/10 00:51:46;;;;;;;24.27;15.70;;;;;;;6.37;95.00;94265.84;1860272;77;22953;-67
2022/12/10 00:54:13;;;;;;;27.60;18.62;;;;;;;6.10;96.46;94269.53;1832131;78;20965;-67
2022/12/10 00:56:39;;;;;;;18.77;8.18;;;;;;;6.06;96.51;94268.72;1832043;78;21028;-67
2022/12/10 00:59:06;;;;;;;18.20;9.97;;;;;;;6.03;96.29;94261.39;1832039;78;21126;-67
2022/12/10 01:01:37;;;;;;;4.70;3.10;;;;;;;6.00;96.55;94264.09;1832249;78;20976;-66
2022/12/10 01:04:16;;;;;;;7.47;2.90;;;;;;;6.01;96.86;94268.41;1832471;78;20999;-67
2022/12/10 01:06:48;;;;;;;13.60;6.90;;;;;;;5.93;96.12;94251.53;1832320;78;20992;-67
2022/12/10 01:09:22;;;;;;;23.67;14.73;;;;;;;5.89;96.27;94259.03;1831421;78;21039;-67
2022/12/10 01:11:51;;;;;;;46.87;26.50;;;;;;;5.87;96.61;94258.20;1832023;78;20996;-67
2022/12/10 01:14:23;;;;;;;20.00;11.20;;;;;;;5.89;96.79;94253.80;1832336;78;21011;-67
2022/12/10 01:16:55;;;;;;;20.90;16.60;;;;;;;5.89;96.78;94246.39;1832401;78;20952;-67
2022/12/10 01:19:22;;;;;;;8.90;4.53;;;;;;;5.89;96.91;94247.25;1832737;78;21450;-67
2022/12/10 01:21:54;;;;;;;11.77;7.87;;;;;;;5.89;96.91;94247.25;1831958;78;21690;-66
2022/12/10 01:24:23;;;;;;;10.30;3.80;;;;;;;5.90;96.96;94254.23;1832929;78;21016;-67
2022/12/10 01:26:50;;;;;;;9.20;5.77;;;;;;;5.95;97.25;94262.02;1832291;78;21038;-67
2022/12/10 01:29:17;;;;;;;16.47;3.97;;;;;;;5.93;97.27;94255.46;1832149;78;21020;-67
2022/12/10 01:31:47;;;;;;;10.77;5.60;;;;;;;5.97;97.51;94257.16;1800281;78;20969;-67
2022/12/10 01:34:14;;;;;;;19.60;9.87;;;;;;;6.01;97.82;94260.56;1832607;78;20992;-67
2022/12/10 01:36:45;;;;;;;16.17;7.40;;;;;;;6.05;97.62;94259.16;1832021;78;21080;-67
2022/12/10 01:39:15;;;;;;;25.80;12.37;;;;;;;6.08;97.42;94257.36;1832359;78;20997;-67
2022/12/10 01:41:47;;;;;;;11.80;5.10;;;;;;;6.06;97.24;94251.70;1832319;78;21047;-67
2022/12/10 01:44:21;;;;;;;12.50;7.08;;;;;;;6.06;97.21;94256.94;1832703;78;21016;-67
2022/12/10 01:46:54;;;;;;;25.33;11.87;;;;;;;6.10;97.58;94253.81;1832436;78;21038;-67
2022/12/10 01:49:25;;;;;;;117.40;90.87;;;;;;;6.15;97.78;94245.41;1832428;78;21047;-67
2022/12/10 01:51:55;;;;;;;67.77;51.73;;;;;;;6.20;97.76;94255.75;1831729;78;21047;-67
2022/12/10 01:54:27;;;;;;;42.83;25.63;;;;;;;6.21;97.66;94260.96;1831831;78;21004;-67
2022/12/10 01:57:05;;;;;;;62.57;31.07;;;;;;;6.22;97.54;94251.34;1831590;78;21039;-67
2022/12/10 01:59:33;;;;;;;11.07;7.93;;;;;;;6.24;97.71;94246.93;1831471;78;20984;-67
2022/12/10 02:02:24;;;;;;;25.40;13.47;;;;;;;6.20;97.44;94248.78;1832193;78;21012;-67
2022/12/10 02:05:26;;;;;;;37.17;19.20;;;;;;;6.22;97.59;94241.75;1831890;78;21028;-67
2022/12/10 02:08:19;;;;;;;31.23;17.07;;;;;;;6.20;97.38;94251.81;1813223;78;20984;-67
2022/12/10 02:11:22;;;;;;;39.00;22.30;;;;;;;6.21;97.62;94251.80;1806416;78;20991;-67
2022/12/10 02:14:06;;;;;;;26.77;14.93;;;;;;;6.18;97.54;94262.34;1831398;78;21043;-67
2022/12/10 02:16:50;;;;;;;43.87;21.83;;;;;;;6.14;97.52;94248.05;1831679;78;21055;-67
2022/12/10 02:19:41;;;;;;;35.03;19.90;;;;;;;6.12;97.58;94246.76;1830271;78;21027;-67
2022/12/10 02:22:09;;;;;;;15.23;7.57;;;;;;;6.11;97.53;94235.88;1831714;78;21055;-67
2022/12/10 02:24:38;;;;;;;41.23;20.83;;;;;;;6.12;97.67;94236.73;1831713;78;21464;-67
2022/12/10 02:27:10;;;;;;;52.43;26.30;;;;;;;6.14;98.92;94238.87;1831584;78;21043;-67
2022/12/10 02:29:37;;;;;;;47.27;26.07;;;;;;;6.17;98.59;94237.03;1831688;78;21035;-67
2022/12/10 02:32:13;;;;;;;40.17;23.00;;;;;;;6.22;98.44;94235.20;1831601;78;21015;-67
2022/12/10 02:34:45;;;;;;;22.90;10.30;;;;;;;6.24;97.94;94237.31;1831975;78;20999;-67
2022/12/10 02:37:20;;;;;;;17.47;10.97;;;;;;;6.26;98.94;94239.91;1830910;78;21060;-67
2022/12/10 02:39:53;;;;;;;15.33;8.63;;;;;;;6.35;98.98;94239.70;1830965;78;21481;-67
2022/12/10 02:42:23;;;;;;;31.93;16.83;;;;;;;6.39;98.60;94232.16;1831721;78;21039;-67
2022/12/10 02:44:52;;;;;;;22.67;13.37;;;;;;;6.43;98.52;94229.03;1831474;78;21011;-67
2022/12/10 02:47:21;;;;;;;18.07;11.90;;;;;;;6.45;98.51;94221.97;1831607;78;21442;-67
2022/12/10 02:49:53;;;;;;;14.77;7.67;;;;;;;6.48;98.84;94214.05;1831669;78;21012;-66
2022/12/10 02:52:21;;;;;;;26.07;15.93;;;;;;;6.54;98.90;94212.58;1831664;78;21047;-67
2022/12/10 02:54:50;;;;;;;3.70;1.77;;;;;;;6.61;98.94;94216.77;1831497;78;20972;-67
2022/12/10 02:57:47;;;;;;;3.77;1.87;;;;;;;6.70;99.18;94206.48;1831337;78;21019;-67
2022/12/10 03:00:18;;;;;;;29.50;16.97;;;;;;;6.72;98.58;94212.55;1831877;78;20980;-67
2022/12/10 03:03:07;;;;;;;35.20;20.43;;;;;;;6.71;98.52;94206.45;1831778;78;20984;-67
2022/12/10 03:05:54;;;;;;;23.33;13.23;;;;;;;6.71;98.26;94205.15;1831803;78;21560;-67
2022/12/10 03:08:35;;;;;;;16.70;11.27;;;;;;;6.74;98.31;94202.89;1831326;78;21556;-67
2022/12/10 03:11:14;;;;;;;12.20;6.87;;;;;;;6.79;98.71;94201.47;1831918;78;20999;-66
2022/12/10 03:14:04;;;;;;;15.63;10.60;;;;;;;6.77;98.40;94202.81;1831599;78;21043;-67
2022/12/10 03:16:45;;;;;;;46.37;26.90;;;;;;;6.77;98.35;94204.12;1831746;78;21031;-67
2022/12/10 03:19:15;;;;;;;13.07;7.20;;;;;;;6.81;98.68;94190.50;1831809;78;21055;-67
2022/12/10 03:21:44;;;;;;;2.83;1.90;;;;;;;6.82;98.50;94191.75;1831369;78;20995;-67
2022/12/10 03:24:12;;;;;;;3.23;1.50;;;;;;;6.82;98.30;94186.96;1831738;78;21000;-67
2022/12/10 03:26:41;;;;;;;1.20;1.00;;;;;;;6.86;98.66;94186.84;1831440;78;20964;-67
2022/12/10 03:29:13;;;;;;;11.13;7.30;;;;;;;6.88;98.44;94190.75;1831565;78;20987;-67
2022/12/10 03:31:42;;;;;;;4.27;2.27;;;;;;;6.85;98.23;94191.66;1831139;78;21504;-67
2022/12/10 03:34:10;;;;;;;14.80;10.75;;;;;;;6.82;97.96;94191.75;1831811;78;20934;-67
2022/12/10 03:36:38;;;;;;;23.23;13.77;;;;;;;6.77;98.20;94196.25;1799685;78;21042;-67
2022/12/10 03:39:06;;;;;;;7.30;4.13;;;;;;;6.69;98.27;94193.84;1799964;78;21126;-67
2022/12/10 03:41:33;;;;;;;2.93;0.80;;;;;;;6.68;98.14;94200.45;1831791;78;21000;-67
2022/12/10 03:44:00;;;;;;;5.67;3.20;;;;;;;6.70;98.41;94190.76;1831697;78;21030;-67
2022/12/10 03:46:30;;;;;;;18.10;10.87;;;;;;;6.67;98.35;94195.63;1831310;78;20995;-67
2022/12/10 03:48:58;;;;;;;13.87;6.30;;;;;;;6.64;97.97;94196.17;1831615;78;21017;-67
2022/12/10 03:51:25;;;;;;;6.00;1.40;;;;;;;6.59;97.82;94211.16;1831583;78;21012;-67
2022/12/10 03:53:52;;;;;;;1.67;0.80;;;;;;;6.61;98.28;94197.11;1831612;78;21042;-67
2022/12/10 03:56:20;;;;;;;3.57;1.30;;;;;;;6.64;98.43;94204.89;1831601;78;20992;-67
2022/12/10 03:58:47;;;;;;;7.90;4.77;;;;;;;6.68;98.66;94205.69;1831568;78;21024;-67
2022/12/10 04:01:15;;;;;;;16.83;8.17;;;;;;;6.70;98.65;94208.68;1831774;78;21063;-67
2022/12/10 04:03:43;;;;;;;7.93;2.60;;;;;;;6.71;98.38;94214.32;1831500;78;21490;-67
2022/12/10 04:06:14;;;;;;;18.83;10.87;;;;;;;6.70;98.20;94211.73;1831632;78;20972;-67
2022/12/10 04:08:41;;;;;;;17.67;9.50;;;;;;;6.69;98.13;94215.27;1831577;78;21035;-67
2022/12/10 04:11:10;;;;;;;7.73;3.93;;;;;;;6.70;98.42;94196.00;1831612;78;21015;-67
2022/12/10 04:16:27;;;;;;;2.10;0.77;;;;;;;6.66;98.02;94199.17;1831892;78;21007;-67
2022/12/10 04:19:09;;;;;;;11.53;5.30;;;;;;;6.69;98.24;94206.09;1831577;78;21036;-67
2022/12/10 04:27:21;;;;;;;52.67;35.53;;;;;;;6.71;98.03;94211.70;1831776;78;21007;-67
2022/12/10 04:29:49;;;;;;;44.77;30.17;;;;;;;6.69;98.21;94205.63;1831670;78;21024;-67
2022/12/10 04:32:16;;;;;;;23.10;15.97;;;;;;;6.71;98.25;94217.40;1831587;78;21496;-67
2022/12/10 04:34:44;;;;;;;26.30;17.17;;;;;;;6.72;98.50;94204.23;1831355;78;21016;-67
2022/12/10 04:37:13;;;;;;;26.27;14.90;;;;;;;6.70;97.94;94200.82;1831443;78;20960;-67
2022/12/10 04:39:41;;;;;;;3.80;2.40;;;;;;;6.72;98.22;94202.07;1831752;78;21046;-67
2022/12/10 04:42:08;;;;;;;4.50;1.37;;;;;;;6.73;98.11;94205.12;1831568;78;21569;-67
2022/12/10 04:44:35;;;;;;;9.20;1.80;;;;;;;6.68;97.86;94209.16;1831830;78;20984;-67
2022/12/10 04:47:05;;;;;;;2.83;1.60;;;;;;;6.69;98.27;94192.53;1831549;78;21007;-67
2022/12/10 04:49:32;;;;;;;24.80;18.07;;;;;;;6.72;98.32;94209.48;1831618;78;21011;-67
2022/12/10 04:51:59;;;;;;;52.93;34.53;;;;;;;6.74;99.00;94200.27;1831484;78;21540;-67
2022/12/10 04:54:27;;;;;;;65.47;42.05;;;;;;;6.78;98.96;94206.28;1831144;78;21046;-66
2022/12/10 04:56:54;;;;;;;5.70;3.97;;;;;;;6.79;98.94;94201.02;1831297;78;21005;-67
2022/12/10 04:59:20;;;;;;;8.50;5.33;;;;;;;6.78;98.57;94200.62;1831465;78;21024;-67
2022/12/10 05:01:47;;;;;;;4.13;2.33;;;;;;;6.76;98.26;94208.11;1831949;78;20972;-67
2022/12/10 05:04:17;;;;;;;6.73;4.13;;;;;;;6.75;98.31;94201.13;1831784;78;21031;-67
2022/12/10 05:06:46;;;;;;;37.30;24.60;;;;;;;6.71;98.44;94200.36;1831350;78;21469;-66
2022/12/10 05:09:14;;;;;;;60.93;41.90;;;;;;;6.70;99.11;94209.99;1799523;78;21023;-67
2022/12/10 05:11:44;;;;;;;59.37;43.70;;;;;;;6.71;98.91;94216.94;1831883;78;21038;-67
2022/12/10 05:14:13;;;;;;;63.83;41.20;;;;;;;6.76;98.99;94203.72;1831347;78;21072;-67
2022/12/10 05:16:40;;;;;;;50.77;35.07;;;;;;;6.79;98.81;94211.95;1831563;78;21007;-67
2022/12/10 05:19:06;;;;;;;62.67;41.87;;;;;;;6.75;98.64;94214.23;1831637;78;21000;-67
2022/12/10 05:24:18;;;;;;;32.57;20.10;;;;;;;6.72;98.35;94214.72;1831816;78;21027;-67
2022/12/10 05:26:46;;;;;;;28.83;20.07;;;;;;;6.68;99.22;94210.94;1831337;78;21118;-67
2022/12/10 05:29:14;;;;;;;30.67;20.07;;;;;;;6.70;99.05;94204.75;1831578;78;20972;-66
2022/12/10 05:31:40;;;;;;;15.50;8.27;;;;;;;6.72;98.76;94200.76;1831725;78;21517;-67
2022/12/10 05:34:08;;;;;;;7.67;3.30;;;;;;;6.73;98.61;94206.44;1831842;78;20990;-67
2022/12/10 05:36:35;;;;;;;9.20;4.73;;;;;;;6.81;99.14;94208.39;1831607;78;20968;-66
2022/12/10 05:39:02;;;;;;;35.80;21.17;;;;;;;6.87;99.32;94213.46;1831832;78;20968;-67
2022/12/10 05:41:33;;;;;;;29.53;17.33;;;;;;;6.90;99.12;94209.47;1831524;78;21055;-67
2022/12/10 05:43:59;;;;;;;17.70;11.77;;;;;;;6.92;98.80;94208.95;1831885;78;21003;-67
2022/12/10 05:46:29;;;;;;;7.03;3.05;;;;;;;6.91;98.48;94213.80;1831840;78;21060;-67
2022/12/10 05:48:57;;;;;;;10.67;7.63;;;;;;;6.98;98.97;94222.80;1831621;78;21476;-67
2022/12/10 05:51:28;;;;;;;16.10;9.60;;;;;;;6.99;98.73;94232.41;1832861;78;21016;-67
2022/12/10 05:53:57;;;;;;;26.73;18.40;;;;;;;7.02;98.80;94237.56;1835214;78;21008;-67
2022/12/10 05:56:26;;;;;;;23.73;16.52;;;;;;;7.04;98.60;94227.45;1835385;78;21026;-67
2022/12/10 05:59:00;;;;;;;23.25;15.45;;;;;;;7.03;98.22;94234.03;1835103;78;21034;-67
2022/12/10 06:01:33;;;;;;;43.33;27.93;;;;;;;7.05;98.55;94222.59;1807800;78;21504;-67
2022/12/10 06:04:02;;;;;;;30.68;21.93;;;;;;;7.04;98.25;94217.41;1835026;78;21035;-67
2022/12/10 06:06:33;;;;;;;9.98;7.15;;;;;;;7.04;98.25;94223.97;1835250;78;21469;-67
2022/12/10 06:09:00;;;;;;;14.40;9.73;;;;;;;7.04;98.39;94223.97;1835464;78;21004;-67
2022/12/10 06:11:28;;;;;;;20.72;14.75;;;;;;;7.10;98.76;94221.16;1835114;78;20960;-67
2022/12/10 06:13:56;;;;;;;15.58;11.08;;;;;;;7.12;98.49;94228.55;1835158;78;21039;-67
2022/12/10 06:16:24;;;;;;;11.50;8.50;;;;;;;7.16;98.73;94226.27;1835227;78;20968;-67
2022/12/10 06:18:51;;;;;;;3.10;1.80;;;;;;;7.22;99.00;94230.02;1835498;78;21007;-68
2022/12/10 06:21:19;;;;;;;3.70;2.12;;;;;;;7.25;98.76;94239.11;1835223;78;21555;-67
2022/12/10 06:23:51;;;;;;;2.75;1.17;;;;;;;7.32;99.20;94234.10;1834941;78;21012;-67
2022/12/10 06:26:22;;;;;;;1.35;1.00;;;;;;;7.35;98.72;94244.50;1835335;78;21007;-67
2022/12/10 06:28:49;;;;;;;2.35;1.02;;;;;;;7.36;98.63;94241.00;1835219;78;21031;-67
2022/12/10 06:31:16;;;;;;;2.30;1.20;;;;;;;7.35;98.18;94243.19;1835284;78;20968;-67
2022/12/10 06:33:43;;;;;;;1.17;1.07;;;;;;;7.36;98.28;94242.77;1834908;78;21062;-67
2022/12/10 06:36:13;;;;;;;4.37;2.25;;;;;;;7.38;98.53;94242.25;1835498;78;21014;-67
2022/12/10 06:38:39;;;;;;;59.80;36.15;;;;;;;7.45;98.87;94248.20;1835158;78;20999;-67
2022/12/10 06:41:09;;;;;;;33.02;22.20;;;;;;;7.51;98.81;94244.07;1835244;78;20976;-67
2022/12/10 06:43:36;;;;;;;30.10;19.73;;;;;;;7.50;98.33;94240.59;1835324;78;21012;-67
2022/12/10 06:46:10;;;;;;;22.40;15.23;;;;;;;7.49;98.15;94238.03;1835187;78;21043;-67
2022/12/10 06:48:38;;;;;;;21.68;15.53;;;;;;;7.54;98.54;94247.48;1835289;78;21027;-67
2022/12/10 06:51:05;;;;;;;34.48;23.02;;;;;;;7.58;98.37;94245.63;1835458;78;21000;-67
2022/12/10 06:53:33;;;;;;;33.53;21.60;;;;;;;7.56;97.99;94250.08;1840696;78;21038;-67
2022/12/10 06:56:03;;;;;;;27.15;17.00;;;;;;;7.58;98.01;94245.63;1840581;78;20980;-67
2022/12/10 06:58:31;;;;;;;22.20;15.20;;;;;;;7.62;98.34;94239.85;1840585;78;21477;-67
2022/12/10 07:01:09;;;;;;;20.20;13.93;;;;;;;7.63;98.17;94253.37;1840878;78;21026;-67
2022/12/10 07:03:37;;;;;;;17.00;9.53;;;;;;;7.69;98.58;94258.00;1840574;78;21019;-67
2022/12/10 07:06:07;;;;;;;6.97;4.72;;;;;;;7.78;98.90;94256.86;1840599;78;21067;-67
2022/12/10 07:08:36;;;;;;;24.50;14.70;;;;;;;7.76;98.20;94257.35;1813103;78;21035;-67
2022/12/10 07:11:10;;;;;;;2.37;1.20;;;;;;;7.77;97.86;94259.95;1840780;78;20972;-67
2022/12/10 07:13:38;;;;;;;6.35;2.87;;;;;;;7.77;97.95;94270.45;1840678;78;21038;-67
2022/12/10 07:16:17;;;;;;;62.33;32.42;;;;;;;7.86;98.67;94259.27;1840779;78;21457;-67
2022/12/10 07:18:45;;;;;;;5.00;2.05;;;;;;;7.87;98.23;94271.51;1840742;78;20956;-67
2022/12/10 07:21:22;;;;;;;47.27;26.95;;;;;;;7.92;98.54;94265.20;1840274;78;21107;-67
2022/12/10 07:23:51;;;;;;;157.37;80.42;;;;;;;7.93;98.09;94262.97;1840755;78;21040;-67
2022/12/10 07:26:18;;;;;;;15.28;8.83;;;;;;;8.03;98.57;94260.94;1840792;78;20999;-67
2022/12/10 07:28:44;;;;;;;4.83;2.08;;;;;;;8.10;98.46;94267.73;1840616;78;20987;-67
2022/12/10 07:31:11;;;;;;;10.32;5.67;;;;;;;8.19;98.76;94267.92;1840764;78;21038;-67
2022/12/10 07:33:38;;;;;;;135.00;83.10;;;;;;;8.17;97.88;94277.61;1840684;78;21516;-67
2022/12/10 07:36:11;;;;;;;138.05;82.45;;;;;;;8.16;98.20;94275.41;1840543;78;20976;-67
2022/12/10 07:38:38;;;;;;;96.17;60.73;;;;;;;8.21;98.53;94272.22;1840748;78;21007;-67
2022/12/10 07:41:09;;;;;;;91.20;57.83;;;;;;;8.30;98.61;94268.44;1840258;78;21106;-67
2022/12/10 07:43:41;;;;;;;31.07;19.57;;;;;;;8.39;98.87;94265.96;1840711;78;20987;-67
2022/12/10 07:46:28;;;;;;;39.03;22.67;;;;;;;8.42;98.22;94269.86;1840809;78;21019;-67
2022/12/10 07:48:55;;;;;;;43.45;26.73;;;;;;;8.42;98.02;94279.06;1812981;78;21481;-67
2022/12/10 07:51:23;;;;;;;59.42;35.90;;;;;;;8.40;97.65;94282.19;1840418;78;21433;-67
2022/12/10 07:53:53;;;;;;;139.70;78.40;;;;;;;8.40;97.79;94281.73;1831625;78;21031;-67
2022/12/10 07:56:21;;;;;;;117.65;64.47;;;;;;;8.42;97.81;94282.55;1831457;78;21055;-67
2022/12/10 07:58:48;;;;;;;73.92;45.12;;;;;;;8.46;98.08;94278.04;1831598;78;21083;-67
2022/12/10 08:01:19;;;;;;;140.47;93.70;;;;;;;8.45;97.58;94290.79;1799742;78;20988;-67
2022/12/10 08:03:45;;;;;;;83.87;47.60;;;;;;;8.49;97.94;94281.88;1831564;78;21460;-67
2022/12/10 08:06:16;;;;;;;47.15;28.75;;;;;;;8.55;98.21;94286.96;1831650;78;21039;-67
2022/12/10 08:08:44;;;;;;;66.85;39.08;;;;;;;8.57;98.04;94279.04;1831689;78;21003;-67
2022/12/10 08:11:13;;;;;;;47.27;30.95;;;;;;;8.58;97.51;94278.97;1831802;78;21007;-67
2022/12/10 08:13:41;;;;;;;41.25;27.98;;;;;;;8.54;97.35;94283.94;1831620;78;21023;-67
2022/12/10 08:16:17;;;;;;;42.83;25.50;;;;;;;8.59;97.83;94288.59;1831519;78;21063;-67
2022/12/10 08:18:45;;;;;;;45.50;28.35;;;;;;;8.62;97.45;94288.48;1831825;78;20988;-67
2022/12/10 08:21:17;;;;;;;41.35;26.45;;;;;;;8.62;97.31;94290.27;1831586;78;21015;-67
2022/12/10 08:23:44;;;;;;;38.23;24.35;;;;;;;8.69;97.77;94279.93;1831199;78;21035;-67
2022/12/10 08:26:20;;;;;;;38.15;25.17;;;;;;;8.78;98.02;94277.48;1831678;78;21477;-67
2022/12/10 08:28:49;;;;;;;37.98;21.65;;;;;;;8.82;97.73;94286.53;1831499;78;21011;-66
2022/12/10 08:31:19;;;;;;;39.30;25.68;;;;;;;8.90;98.03;94290.23;1831522;78;21520;-66
2022/12/10 08:33:45;;;;;;;45.35;28.07;;;;;;;8.86;97.16;94281.55;1831585;78;21012;-67
2022/12/10 08:36:15;;;;;;;61.85;37.67;;;;;;;8.88;97.15;94294.67;1831779;78;20948;-67
2022/12/10 08:38:43;;;;;;;33.53;20.95;;;;;;;8.89;97.29;94281.91;1831508;78;21012;-67
2022/12/10 08:41:14;;;;;;;65.65;41.18;;;;;;;8.87;96.62;94293.81;1831659;78;21016;-66
2022/12/10 08:43:41;;;;;;;60.10;34.95;;;;;;;8.85;96.65;94290.83;1831473;78;21496;-67
2022/12/10 08:46:09;;;;;;;50.08;32.45;;;;;;;8.88;97.05;94293.36;1831641;78;21079;-66
2022/12/10 08:48:37;;;;;;;24.00;14.95;;;;;;;8.87;96.66;94292.50;1831612;78;21039;-67
2022/12/10 08:51:06;;;;;;;65.03;41.50;;;;;;;8.87;96.93;94289.88;1831507;78;20998;-67
2022/12/10 08:53:34;;;;;;;142.90;83.20;;;;;;;8.91;96.79;94283.19;1831529;78;21030;-66
2022/12/10 08:56:01;;;;;;;79.53;46.90;;;;;;;8.92;96.67;94280.95;1831312;78;21027;-67
2022/12/10 08:58:27;;;;;;;73.02;46.90;;;;;;;8.99;97.37;94283.32;1831435;78;21035;-67
2022/12/10 09:00:55;;;;;;;9.73;6.42;;;;;;;9.10;97.82;94283.84;1831342;78;21019;-67
2022/12/10 09:03:22;;;;;;;40.58;25.68;;;;;;;9.16;97.29;94270.07;1831773;78;20988;-67
2022/12/10 09:05:48;;;;;;;120.53;69.58;;;;;;;9.18;97.18;94270.42;1831365;78;21118;-66
2022/12/10 09:08:15;;;;;;;26.40;18.90;;;;;;;9.27;97.67;94266.59;1831731;78;21489;-67
2022/12/10 09:10:42;;;;;;;24.07;16.90;;;;;;;9.29;97.44;94269.58;1831866;78;21027;-67
2022/12/10 09:13:09;;;;;;;26.00;18.17;;;;;;;9.37;97.79;94272.41;1831809;78;21474;-67
2022/12/10 09:15:36;;;;;;;151.65;80.30;;;;;;;9.42;97.54;94263.42;1831553;78;21055;-66
2022/12/10 09:18:03;;;;;;;137.45;78.92;;;;;;;9.46;97.25;94261.56;1831775;78;20948;-67
2022/12/10 09:20:30;;;;;;;142.07;88.22;;;;;;;9.50;97.25;94267.98;1831464;78;21040;-67
2022/12/10 09:22:57;;;;;;;163.68;95.10;;;;;;;9.51;97.14;94255.67;1831824;78;21004;-67
2022/12/10 09:25:23;;;;;;;133.22;75.42;;;;;;;9.58;97.34;94261.59;1831705;78;21521;-67
2022/12/10 09:27:50;;;;;;;112.97;67.80;;;;;;;9.62;96.74;94259.22;1831586;78;21489;-66
2022/12/10 09:30:17;;;;;;;151.95;85.72;;;;;;;9.59;96.29;94256.70;1831920;78;21027;-66
2022/12/10 09:32:44;;;;;;;154.72;83.25;;;;;;;9.60;96.35;94255.34;1831884;78;20984;-66
2022/12/10 09:35:10;;;;;;;164.88;96.37;;;;;;;9.65;96.44;94258.67;1831751;78;20964;-66
2022/12/10 09:37:37;;;;;;;101.72;61.45;;;;;;;9.74;96.90;94245.61;1831702;78;21020;-66
2022/12/10 09:40:05;;;;;;;78.55;48.60;;;;;;;9.79;96.72;94246.30;1831648;78;21031;-66
2022/12/10 09:42:44;;;;;;;87.45;54.48;;;;;;;9.85;96.95;94246.09;1831938;78;20948;-67
2022/12/10 09:45:18;;;;;;;67.00;40.52;;;;;;;9.92;97.19;94235.70;1811471;78;20984;-66
2022/12/10 09:48:00;;;;;;;50.65;32.60;;;;;;;9.98;96.72;94233.31;1831814;78;21000;-66
2022/12/10 09:50:36;;;;;;;51.00;30.85;;;;;;;10.01;96.77;94233.65;1831814;78;20995;-66
2022/12/10 09:53:04;;;;;;;37.00;23.60;;;;;;;10.08;96.98;94228.09;1833425;78;21540;-67
2022/12/10 09:55:43;;;;;;;45.67;29.35;;;;;;;10.15;96.88;94218.14;1835277;78;21038;-66
2022/12/10 09:58:17;;;;;;;55.38;36.00;;;;;;;10.22;97.09;94214.36;1835336;78;21047;-67
2022/12/10 10:00:49;;;;;;;49.58;33.83;;;;;;;10.27;96.63;94217.67;1835082;78;21484;-67
2022/12/10 10:03:16;;;;;;;29.80;20.77;;;;;;;10.26;96.41;94208.52;1807650;78;21051;-66
2022/12/10 10:05:50;;;;;;;36.42;19.35;;;;;;;10.28;96.59;94210.64;1835194;78;21011;-66
2022/12/10 10:08:40;;;;;;;38.48;25.82;;;;;;;10.33;96.95;94212.20;1835381;78;21517;-66
2022/12/10 10:11:28;;;;;;;41.65;27.80;;;;;;;10.35;96.70;94204.21;1835297;78;21525;-66
2022/12/10 10:14:12;;;;;;;72.62;44.27;;;;;;;10.31;95.52;94211.40;1835284;78;21000;-67
2022/12/10 10:16:49;;;;;;;48.60;31.57;;;;;;;10.25;95.86;94204.15;1834986;78;20995;-66
2022/12/10 10:19:26;;;;;;;63.33;38.25;;;;;;;10.28;96.22;94205.38;1835239;78;20976;-67
2022/12/10 10:21:53;;;;;;;43.65;29.02;;;;;;;10.21;95.52;94203.42;1834713;78;21010;-66
2022/12/10 10:24:35;;;;;;;46.35;28.38;;;;;;;10.16;95.31;94206.23;1835204;78;21521;-67
2022/12/10 10:27:19;;;;;;;138.90;72.90;;;;;;;10.03;94.41;94203.69;1835448;78;21020;-67
2022/12/10 10:29:47;;;;;;;;;;;;;;;9.91;94.84;94206.79;1837690;78;20973;-67
2022/12/10 10:32:21;;;;;;;92.47;45.33;;;;;;;9.91;96.32;94199.73;1835258;78;20125;-67
2022/12/10 10:34:57;;;;;;;41.18;29.52;;;;;;;9.92;96.24;94195.32;1835386;78;21496;-67
2022/12/10 10:37:40;;;;;;;48.73;29.30;;;;;;;9.92;96.00;94190.05;1835271;78;21014;-67
2022/12/10 10:40:13;;;;;;;38.17;23.22;;;;;;;9.90;95.89;94186.61;1835377;78;21477;-67
2022/12/10 10:42:45;;;;;;;33.87;22.30;;;;;;;9.95;96.53;94185.54;1824177;78;21465;-66
2022/12/10 10:45:33;;;;;;;33.65;22.27;;;;;;;9.99;96.65;94175.73;1834869;78;21000;-66
2022/12/10 10:48:17;;;;;;;43.17;25.55;;;;;;;9.99;96.35;94183.63;1835187;78;20995;-67
2022/12/10 10:50:57;;;;;;;35.52;22.50;;;;;;;10.02;96.45;94179.55;1835356;78;20976;-67
2022/12/10 10:53:32;;;;;;;21.12;14.33;;;;;;;10.03;96.24;94183.92;1833621;78;20980;-66
2022/12/10 10:56:24;;;;;;;14.15;8.88;;;;;;;10.04;96.21;94182.14;1831534;78;20973;-66
2022/12/10 10:59:17;;;;;;;19.82;12.18;;;;;;;10.04;95.96;94181.67;1831684;78;20975;-67
2022/12/10 11:01:49;;;;;;;22.45;17.02;;;;;;;10.00;95.63;94174.80;1831473;78;21039;-67
2022/12/10 11:04:21;;;;;;;11.25;6.12;;;;;;;10.00;95.87;94172.16;1831750;78;20991;-66
2022/12/10 11:06:51;;;;;;;25.00;14.13;;;;;;;10.02;96.31;94174.28;1831716;78;21028;-66
2022/12/10 11:09:28;;;;;;;24.55;16.73;;;;;;;10.04;96.31;94179.50;1831918;78;20999;-66
2022/12/10 11:12:05;;;;;;;26.52;17.48;;;;;;;10.03;95.73;94173.81;1831576;78;21537;-66
2022/12/10 11:14:37;;;;;;;20.77;13.13;;;;;;;10.00;95.25;94164.72;1830854;78;21034;-67
2022/12/10 11:17:15;;;;;;;20.17;14.50;;;;;;;9.97;95.39;94163.06;1831308;78;21008;-66
2022/12/10 11:20:01;;;;;;;9.08;7.30;;;;;;;9.96;95.28;94164.00;1830991;78;21087;-66
2022/12/10 11:22:32;;;;;;;10.63;6.40;;;;;;;9.95;95.68;94153.92;1831607;78;21042;-67
2022/12/10 11:25:00;;;;;;;6.37;4.72;;;;;;;10.07;96.56;94158.30;1831655;78;20983;-67
2022/12/10 11:27:52;;;;;;;9.98;6.53;;;;;;;10.15;96.61;94164.11;1831663;78;20968;-66
2022/12/10 11:30:23;;;;;;;9.53;7.22;;;;;;;10.26;96.92;94164.56;1831259;78;21504;-66
2022/12/10 11:33:01;;;;;;;13.55;8.83;;;;;;;10.23;95.61;94163.37;1831535;78;21019;-67
2022/12/10 11:36:11;;;;;;;73.85;40.67;;;;;;;10.28;96.19;94168.47;1831389;78;21027;-66
2022/12/10 11:39:01;;;;;;;15.55;7.37;;;;;;;10.21;95.07;94169.63;1744574;78;21537;-67
2022/12/10 11:41:36;;;;;;;37.15;21.33;;;;;;;10.17;95.72;94161.81;1805093;78;21043;-67
2022/12/10 11:44:26;;;;;;;33.28;20.02;;;;;;;10.18;95.97;94155.64;1831969;78;21469;-66
2022/12/10 11:47:19;;;;;;;39.33;19.77;;;;;;;10.23;96.11;94140.97;1811944;78;21004;-67
2022/12/10 11:50:09;;;;;;;18.25;11.40;;;;;;;10.24;95.85;94144.45;1831915;78;21011;-66
2022/12/10 11:53:18;;;;;;;13.72;8.58;;;;;;;10.16;95.22;94140.34;1831416;78;21016;-67
2022/12/10 11:56:15;;;;;;;24.52;14.98;;;;;;;10.16;95.38;94144.77;1827016;78;21008;-67
2022/12/10 11:58:50;;;;;;;16.87;6.78;;;;;;;10.06;94.80;94146.91;1831074;78;21047;-67
2022/12/10 12:01:31;;;;;;;12.95;8.28;;;;;;;10.03;95.39;94136.92;1799096;78;21055;-66
2022/12/10 12:04:32;;;;;;;150.03;72.42;;;;;;;10.03;95.44;94136.92;1831555;78;21023;-67
2022/12/10 12:07:22;;;;;;;72.95;41.48;;;;;;;10.02;96.18;94135.22;1831746;78;21016;-66
2022/12/10 12:10:19;;;;;;;124.97;69.67;;;;;;;10.03;96.34;94132.97;1831472;78;21027;-66
2022/12/10 12:13:02;;;;;;;10.25;5.55;;;;;;;10.09;96.70;94129.64;1831784;78;21008;-66
2022/12/10 12:16:00;;;;;;;6.95;3.65;;;;;;;10.05;95.51;94121.45;1831651;78;21026;-66
2022/12/10 12:18:44;;;;;;;9.43;5.12;;;;;;;10.03;95.58;94120.68;1831691;78;21450;-66
2022/12/10 12:21:15;;;;;;;4.42;3.50;;;;;;;9.95;95.33;94123.63;1831653;78;21493;-67